sensor_id;sensor_type;location;lat;lon;timestamp;temperature;humidity
25112;DHT22;13092;51.996;4.458;2022-09-16T00:01:38;15.40;99.90
25112;DHT22;13092;51.996;4.458;2022-09-16T00:04:06;15.60;99.90
25112;DHT22;13092;51.996;4.458;2022-09-16T00:06:34;15.60;99.90
25112;DHT22;13092;51.996;4.458;2022-09-16T00:09:02;15.70;99.90
25112;DHT22;13092;51.996;4.458;2022-09-16T00:11:31;15.70;99.90
25112;DHT22;13092;51.996;4.458;2022-09-16T00:14:03;15.80;99.90
25112;DHT22;13092;51.996;4.458;2022-09-16T00:16:31;15.90;99.90
25112;DHT22;13092;51.996;4.458;2022-09-16T00:18:59;15.70;99.90
25112;DHT22;13092;51.996;4.458;2022-09-16T00:21:29;15.80;99.90
25112;DHT22;13092;51.996;4.458;2022-09-16T00:23:58;15.80;99.90
25112;DHT22;13092;51.996;4.458;2022-09-16T00:26:26;15.80;99.90
25112;DHT22;13092;51.996;4.458;2022-09-16T00:28:55;15.80;99.90
25112;DHT22;13092;51.996;4.458;2022-09-16T00:31:25;15.80;99.90
25112;DHT22;13092;51.996;4.458;2022-09-16T00:33:53;15.70;99.90
25112;DHT22;13092;51.996;4.458;2022-09-16T00:36:22;15.80;99.90
25112;DHT22;13092;51.996;4.458;2022-09-16T00:38:51;15.80;99.90
25112;DHT22;13092;51.996;4.458;2022-09-16T00:41:22;15.70;99.90
25112;DHT22;13092;51.996;4.458;2022-09-16T00:43:53;15.60;99.90
25112;DHT22;13092;51.996;4.458;2022-09-16T00:46:28;15.60;99.90
25112;DHT22;13092;51.996;4.458;2022-09-16T00:49:01;15.50;99.90
25112;DHT22;13092;51.996;4.458;2022-09-16T00:51:31;15.50;99.90
25112;DHT22;13092;51.996;4.458;2022-09-16T00:54:02;15.50;99.90
25112;DHT22;13092;51.996;4.458;2022-09-16T00:56:34;15.40;99.90
25112;DHT22;13092;51.996;4.458;2022-09-16T00:59:06;15.40;99.90
25112;DHT22;13092;51.996;4.458;2022-09-16T01:01:37;15.40;99.90
25112;DHT22;13092;51.996;4.458;2022-09-16T01:04:10;15.50;99.90
25112;DHT22;13092;51.996;4.458;2022-09-16T01:06:40;15.30;99.90
25112;DHT22;13092;51.996;4.458;2022-09-16T01:09:09;15.30;99.90
25112;DHT22;13092;51.996;4.458;2022-09-16T01:11:37;15.30;99.90
25112;DHT22;13092;51.996;4.458;2022-09-16T01:14:06;15.20;99.90
25112;DHT22;13092;51.996;4.458;2022-09-16T01:16:54;15.30;99.90
25112;DHT22;13092;51.996;4.458;2022-09-16T01:19:41;15.30;99.90
25112;DHT22;13092;51.996;4.458;2022-09-16T01:22:20;15.40;99.90
25112;DHT22;13092;51.996;4.458;2022-09-16T01:24:56;15.50;99.90
25112;DHT22;13092;51.996;4.458;2022-09-16T01:27:42;15.30;99.90
25112;DHT22;13092;51.996;4.458;2022-09-16T01:30:34;15.20;99.90
25112;DHT22;13092;51.996;4.458;2022-09-16T01:33:05;14.90;99.90
25112;DHT22;13092;51.996;4.458;2022-09-16T01:38:48;14.60;99.90
25112;DHT22;13092;51.996;4.458;2022-09-16T01:41:26;14.50;99.90
25112;DHT22;13092;51.996;4.458;2022-09-16T01:44:02;14.50;99.90
25112;DHT22;13092;51.996;4.458;2022-09-16T01:46:39;14.50;99.90
25112;DHT22;13092;51.996;4.458;2022-09-16T01:49:17;14.50;99.90
25112;DHT22;13092;51.996;4.458;2022-09-16T01:51:51;14.40;99.90
25112;DHT22;13092;51.996;4.458;2022-09-16T01:54:23;14.50;99.90
25112;DHT22;13092;51.996;4.458;2022-09-16T01:57:01;14.50;99.90
25112;DHT22;13092;51.996;4.458;2022-09-16T01:59:35;14.50;99.90
25112;DHT22;13092;51.996;4.458;2022-09-16T02:02:11;14.50;99.90
25112;DHT22;13092;51.996;4.458;2022-09-16T02:04:46;14.50;99.90
25112;DHT22;13092;51.996;4.458;2022-09-16T02:07:18;14.50;99.90
25112;DHT22;13092;51.996;4.458;2022-09-16T02:09:52;14.60;99.90
25112;DHT22;13092;51.996;4.458;2022-09-16T02:12:24;14.60;99.90
25112;DHT22;13092;51.996;4.458;2022-09-16T02:14:58;14.80;99.90
25112;DHT22;13092;51.996;4.458;2022-09-16T02:17:32;14.50;99.90
25112;DHT22;13092;51.996;4.458;2022-09-16T02:20:04;14.70;99.90
25112;DHT22;13092;51.996;4.458;2022-09-16T02:22:37;14.60;99.90
25112;DHT22;13092;51.996;4.458;2022-09-16T02:25:07;14.50;99.90
25112;DHT22;13092;51.996;4.458;2022-09-16T02:27:38;14.70;99.90
25112;DHT22;13092;51.996;4.458;2022-09-16T02:30:09;14.70;99.90
25112;DHT22;13092;51.996;4.458;2022-09-16T02:32:44;14.60;99.90
25112;DHT22;13092;51.996;4.458;2022-09-16T02:35:15;14.50;99.90
25112;DHT22;13092;51.996;4.458;2022-09-16T02:37:47;14.40;99.90
25112;DHT22;13092;51.996;4.458;2022-09-16T02:40:20;14.30;99.90
25112;DHT22;13092;51.996;4.458;2022-09-16T02:42:50;14.30;99.90
25112;DHT22;13092;51.996;4.458;2022-09-16T02:45:20;14.20;99.90
25112;DHT22;13092;51.996;4.458;2022-09-16T02:47:58;14.20;99.90
25112;DHT22;13092;51.996;4.458;2022-09-16T02:50:29;14.20;99.90
25112;DHT22;13092;51.996;4.458;2022-09-16T02:53:08;14.20;99.90
25112;DHT22;13092;51.996;4.458;2022-09-16T02:55:45;14.30;99.90
25112;DHT22;13092;51.996;4.458;2022-09-16T02:58:17;14.30;99.90
25112;DHT22;13092;51.996;4.458;2022-09-16T03:00:48;14.20;99.90
25112;DHT22;13092;51.996;4.458;2022-09-16T03:03:18;14.10;99.90
25112;DHT22;13092;51.996;4.458;2022-09-16T03:06:15;14.10;99.90
25112;DHT22;13092;51.996;4.458;2022-09-16T03:08:44;14.10;99.90
25112;DHT22;13092;51.996;4.458;2022-09-16T03:11:25;14.20;99.90
25112;DHT22;13092;51.996;4.458;2022-09-16T03:14:06;14.10;99.90
25112;DHT22;13092;51.996;4.458;2022-09-16T03:16:45;14.20;99.90
25112;DHT22;13092;51.996;4.458;2022-09-16T03:19:23;14.30;99.90
25112;DHT22;13092;51.996;4.458;2022-09-16T03:21:57;14.20;99.90
25112;DHT22;13092;51.996;4.458;2022-09-16T03:24:32;14.20;99.90
25112;DHT22;13092;51.996;4.458;2022-09-16T03:27:08;14.20;99.90
25112;DHT22;13092;51.996;4.458;2022-09-16T03:29:42;14.20;99.90
25112;DHT22;13092;51.996;4.458;2022-09-16T03:32:17;14.30;99.90
25112;DHT22;13092;51.996;4.458;2022-09-16T03:34:51;14.40;99.90
25112;DHT22;13092;51.996;4.458;2022-09-16T03:37:20;14.50;99.90
25112;DHT22;13092;51.996;4.458;2022-09-16T03:39:51;14.50;99.90
25112;DHT22;13092;51.996;4.458;2022-09-16T03:42:20;14.50;99.90
25112;DHT22;13092;51.996;4.458;2022-09-16T03:44:48;14.50;99.90
25112;DHT22;13092;51.996;4.458;2022-09-16T03:47:16;14.40;99.90
25112;DHT22;13092;51.996;4.458;2022-09-16T03:49:44;14.50;99.90
25112;DHT22;13092;51.996;4.458;2022-09-16T03:52:14;14.40;99.90
25112;DHT22;13092;51.996;4.458;2022-09-16T03:54:44;14.40;99.90
25112;DHT22;13092;51.996;4.458;2022-09-16T03:57:12;14.40;99.90
25112;DHT22;13092;51.996;4.458;2022-09-16T03:59:39;14.40;99.90
25112;DHT22;13092;51.996;4.458;2022-09-16T04:02:08;14.30;99.90
25112;DHT22;13092;51.996;4.458;2022-09-16T04:04:36;14.30;99.90
25112;DHT22;13092;51.996;4.458;2022-09-16T04:07:04;14.40;99.90
25112;DHT22;13092;51.996;4.458;2022-09-16T04:09:41;14.40;99.90
25112;DHT22;13092;51.996;4.458;2022-09-16T04:12:09;14.60;99.90
25112;DHT22;13092;51.996;4.458;2022-09-16T04:14:37;14.50;99.90
25112;DHT22;13092;51.996;4.458;2022-09-16T04:17:05;14.60;99.90
25112;DHT22;13092;51.996;4.458;2022-09-16T04:19:33;14.60;99.90
25112;DHT22;13092;51.996;4.458;2022-09-16T04:22:01;14.60;99.90
25112;DHT22;13092;51.996;4.458;2022-09-16T04:24:30;14.60;99.90
25112;DHT22;13092;51.996;4.458;2022-09-16T04:27:02;14.70;99.90
25112;DHT22;13092;51.996;4.458;2022-09-16T04:29:30;14.60;99.90
25112;DHT22;13092;51.996;4.458;2022-09-16T04:31:58;14.70;99.90
25112;DHT22;13092;51.996;4.458;2022-09-16T04:34:26;14.50;99.90
25112;DHT22;13092;51.996;4.458;2022-09-16T04:36:54;14.40;99.90
25112;DHT22;13092;51.996;4.458;2022-09-16T04:39:24;14.50;99.90
25112;DHT22;13092;51.996;4.458;2022-09-16T04:41:52;14.50;99.90
25112;DHT22;13092;51.996;4.458;2022-09-16T04:44:22;14.40;99.90
25112;DHT22;13092;51.996;4.458;2022-09-16T04:46:50;14.50;99.90
25112;DHT22;13092;51.996;4.458;2022-09-16T04:49:18;14.50;99.90
25112;DHT22;13092;51.996;4.458;2022-09-16T04:51:46;14.50;99.90
25112;DHT22;13092;51.996;4.458;2022-09-16T04:54:14;14.40;99.90
25112;DHT22;13092;51.996;4.458;2022-09-16T04:56:43;14.40;99.90
25112;DHT22;13092;51.996;4.458;2022-09-16T04:59:13;14.30;99.90
25112;DHT22;13092;51.996;4.458;2022-09-16T05:01:42;14.30;99.90
25112;DHT22;13092;51.996;4.458;2022-09-16T05:04:11;14.20;99.90
25112;DHT22;13092;51.996;4.458;2022-09-16T05:06:40;14.20;99.90
25112;DHT22;13092;51.996;4.458;2022-09-16T05:09:10;14.10;99.90
25112;DHT22;13092;51.996;4.458;2022-09-16T05:11:39;14.10;99.90
25112;DHT22;13092;51.996;4.458;2022-09-16T05:14:11;14.20;99.90
25112;DHT22;13092;51.996;4.458;2022-09-16T05:16:39;14.00;99.90
25112;DHT22;13092;51.996;4.458;2022-09-16T05:19:11;14.00;99.90
25112;DHT22;13092;51.996;4.458;2022-09-16T05:21:40;14.00;99.90
25112;DHT22;13092;51.996;4.458;2022-09-16T05:24:11;14.00;99.90
25112;DHT22;13092;51.996;4.458;2022-09-16T05:26:41;14.00;99.90
25112;DHT22;13092;51.996;4.458;2022-09-16T05:29:12;14.00;99.90
25112;DHT22;13092;51.996;4.458;2022-09-16T05:31:44;14.00;99.90
25112;DHT22;13092;51.996;4.458;2022-09-16T05:34:16;14.00;99.90
25112;DHT22;13092;51.996;4.458;2022-09-16T05:36:45;14.10;99.90
25112;DHT22;13092;51.996;4.458;2022-09-16T05:39:22;14.00;99.90
25112;DHT22;13092;51.996;4.458;2022-09-16T05:41:55;14.20;99.90
25112;DHT22;13092;51.996;4.458;2022-09-16T05:44:23;14.30;99.90
25112;DHT22;13092;51.996;4.458;2022-09-16T05:46:52;14.30;99.90
25112;DHT22;13092;51.996;4.458;2022-09-16T05:49:22;14.30;99.90
25112;DHT22;13092;51.996;4.458;2022-09-16T05:51:51;14.20;99.90
25112;DHT22;13092;51.996;4.458;2022-09-16T05:54:20;14.20;99.90
25112;DHT22;13092;51.996;4.458;2022-09-16T05:56:51;14.20;99.90
25112;DHT22;13092;51.996;4.458;2022-09-16T05:59:19;14.20;99.90
25112;DHT22;13092;51.996;4.458;2022-09-16T06:01:51;14.20;99.90
25112;DHT22;13092;51.996;4.458;2022-09-16T06:04:19;14.10;99.90
25112;DHT22;13092;51.996;4.458;2022-09-16T06:06:48;14.10;99.90
25112;DHT22;13092;51.996;4.458;2022-09-16T06:09:19;14.00;99.90
25112;DHT22;13092;51.996;4.458;2022-09-16T06:11:48;14.00;99.90
25112;DHT22;13092;51.996;4.458;2022-09-16T06:14:18;14.00;99.90
25112;DHT22;13092;51.996;4.458;2022-09-16T06:16:48;13.80;99.90
25112;DHT22;13092;51.996;4.458;2022-09-16T06:19:17;13.80;99.90
25112;DHT22;13092;51.996;4.458;2022-09-16T06:21:47;13.60;99.90
25112;DHT22;13092;51.996;4.458;2022-09-16T06:24:16;13.50;99.90
25112;DHT22;13092;51.996;4.458;2022-09-16T06:26:45;13.50;99.90
25112;DHT22;13092;51.996;4.458;2022-09-16T06:29:16;13.40;99.90
25112;DHT22;13092;51.996;4.458;2022-09-16T06:31:44;13.40;99.90
25112;DHT22;13092;51.996;4.458;2022-09-16T06:34:14;13.40;99.90
25112;DHT22;13092;51.996;4.458;2022-09-16T06:36:43;13.50;99.90
25112;DHT22;13092;51.996;4.458;2022-09-16T06:39:20;13.50;99.90
25112;DHT22;13092;51.996;4.458;2022-09-16T06:41:49;13.60;99.90
25112;DHT22;13092;51.996;4.458;2022-09-16T06:44:17;13.60;99.90
25112;DHT22;13092;51.996;4.458;2022-09-16T06:46:45;13.80;99.90
25112;DHT22;13092;51.996;4.458;2022-09-16T06:49:13;13.90;99.90
25112;DHT22;13092;51.996;4.458;2022-09-16T06:51:42;13.90;99.90
25112;DHT22;13092;51.996;4.458;2022-09-16T06:54:10;14.00;99.90
25112;DHT22;13092;51.996;4.458;2022-09-16T06:56:40;14.10;99.90
25112;DHT22;13092;51.996;4.458;2022-09-16T06:59:09;14.10;99.90
25112;DHT22;13092;51.996;4.458;2022-09-16T07:01:40;14.30;99.90
25112;DHT22;13092;51.996;4.458;2022-09-16T07:04:09;14.30;99.90
25112;DHT22;13092;51.996;4.458;2022-09-16T07:06:39;14.50;99.90
25112;DHT22;13092;51.996;4.458;2022-09-16T07:09:27;14.60;99.90
25112;DHT22;13092;51.996;4.458;2022-09-16T07:11:57;14.90;99.90
25112;DHT22;13092;51.996;4.458;2022-09-16T07:14:28;14.90;99.90
25112;DHT22;13092;51.996;4.458;2022-09-16T07:16:58;15.20;99.90
25112;DHT22;13092;51.996;4.458;2022-09-16T07:19:27;15.30;99.90
25112;DHT22;13092;51.996;4.458;2022-09-16T07:21:58;15.30;99.90
25112;DHT22;13092;51.996;4.458;2022-09-16T07:24:26;14.90;99.90
25112;DHT22;13092;51.996;4.458;2022-09-16T07:27:01;14.70;99.90
25112;DHT22;13092;51.996;4.458;2022-09-16T07:29:29;14.30;99.90
25112;DHT22;13092;51.996;4.458;2022-09-16T07:32:00;14.00;99.90
25112;DHT22;13092;51.996;4.458;2022-09-16T07:34:31;14.00;99.90
25112;DHT22;13092;51.996;4.458;2022-09-16T07:37:00;13.90;99.90
25112;DHT22;13092;51.996;4.458;2022-09-16T07:39:28;13.90;99.90
25112;DHT22;13092;51.996;4.458;2022-09-16T07:41:56;14.00;99.90
25112;DHT22;13092;51.996;4.458;2022-09-16T07:44:32;14.10;99.90
25112;DHT22;13092;51.996;4.458;2022-09-16T07:47:00;14.10;99.90
25112;DHT22;13092;51.996;4.458;2022-09-16T07:49:29;14.20;99.90
25112;DHT22;13092;51.996;4.458;2022-09-16T07:51:57;14.40;99.90
25112;DHT22;13092;51.996;4.458;2022-09-16T07:54:26;14.40;99.90
25112;DHT22;13092;51.996;4.458;2022-09-16T07:56:54;14.40;99.90
25112;DHT22;13092;51.996;4.458;2022-09-16T07:59:27;14.40;99.90
25112;DHT22;13092;51.996;4.458;2022-09-16T08:01:58;14.50;99.90
25112;DHT22;13092;51.996;4.458;2022-09-16T08:04:26;14.50;99.90
25112;DHT22;13092;51.996;4.458;2022-09-16T08:06:55;14.60;99.90
25112;DHT22;13092;51.996;4.458;2022-09-16T08:09:23;14.70;99.90
25112;DHT22;13092;51.996;4.458;2022-09-16T08:12:11;14.80;99.90
25112;DHT22;13092;51.996;4.458;2022-09-16T08:14:40;14.90;99.90
25112;DHT22;13092;51.996;4.458;2022-09-16T08:17:10;14.90;99.90
25112;DHT22;13092;51.996;4.458;2022-09-16T08:19:38;15.00;99.90
25112;DHT22;13092;51.996;4.458;2022-09-16T08:22:07;14.90;99.90
25112;DHT22;13092;51.996;4.458;2022-09-16T08:24:35;14.80;99.90
25112;DHT22;13092;51.996;4.458;2022-09-16T08:27:03;14.60;99.90
25112;DHT22;13092;51.996;4.458;2022-09-16T08:29:31;14.50;99.90
25112;DHT22;13092;51.996;4.458;2022-09-16T08:32:01;14.50;99.90
25112;DHT22;13092;51.996;4.458;2022-09-16T08:34:31;14.50;99.90
25112;DHT22;13092;51.996;4.458;2022-09-16T08:36:59;14.50;99.90
25112;DHT22;13092;51.996;4.458;2022-09-16T08:39:27;14.60;99.90
25112;DHT22;13092;51.996;4.458;2022-09-16T08:42:28;14.70;99.90
25112;DHT22;13092;51.996;4.458;2022-09-16T08:45:06;14.70;99.90
25112;DHT22;13092;51.996;4.458;2022-09-16T08:47:45;14.80;99.90
25112;DHT22;13092;51.996;4.458;2022-09-16T08:50:22;14.90;99.90
25112;DHT22;13092;51.996;4.458;2022-09-16T08:52:54;14.80;99.90
25112;DHT22;13092;51.996;4.458;2022-09-16T08:55:26;14.60;99.90
25112;DHT22;13092;51.996;4.458;2022-09-16T08:58:00;14.40;99.90
25112;DHT22;13092;51.996;4.458;2022-09-16T09:00:29;14.10;99.90
25112;DHT22;13092;51.996;4.458;2022-09-16T09:03:06;14.10;99.90
25112;DHT22;13092;51.996;4.458;2022-09-16T09:05:48;14.30;99.90
25112;DHT22;13092;51.996;4.458;2022-09-16T09:08:26;14.20;99.90
25112;DHT22;13092;51.996;4.458;2022-09-16T09:11:03;14.30;99.90
25112;DHT22;13092;51.996;4.458;2022-09-16T09:13:45;14.30;99.90
25112;DHT22;13092;51.996;4.458;2022-09-16T09:16:21;14.40;99.90
25112;DHT22;13092;51.996;4.458;2022-09-16T09:19:00;14.50;99.90
25112;DHT22;13092;51.996;4.458;2022-09-16T09:21:40;14.50;99.90
25112;DHT22;13092;51.996;4.458;2022-09-16T09:24:22;14.60;99.90
25112;DHT22;13092;51.996;4.458;2022-09-16T09:26:58;14.80;99.90
25112;DHT22;13092;51.996;4.458;2022-09-16T09:29:48;14.60;99.90
25112;DHT22;13092;51.996;4.458;2022-09-16T09:32:24;14.60;99.90
25112;DHT22;13092;51.996;4.458;2022-09-16T09:35:22;14.40;99.90
25112;DHT22;13092;51.996;4.458;2022-09-16T09:40:57;14.20;99.90
25112;DHT22;13092;51.996;4.458;2022-09-16T09:43:30;14.10;99.90
25112;DHT22;13092;51.996;4.458;2022-09-16T09:46:03;14.30;99.90
25112;DHT22;13092;51.996;4.458;2022-09-16T09:48:36;14.30;99.90
25112;DHT22;13092;51.996;4.458;2022-09-16T09:51:14;14.30;99.90
25112;DHT22;13092;51.996;4.458;2022-09-16T09:53:48;14.40;99.90
25112;DHT22;13092;51.996;4.458;2022-09-16T09:56:22;14.50;99.90
25112;DHT22;13092;51.996;4.458;2022-09-16T09:58:59;14.60;99.90
25112;DHT22;13092;51.996;4.458;2022-09-16T10:01:28;14.70;99.90
25112;DHT22;13092;51.996;4.458;2022-09-16T10:03:56;14.90;99.90
25112;DHT22;13092;51.996;4.458;2022-09-16T10:06:28;15.10;99.90
25112;DHT22;13092;51.996;4.458;2022-09-16T10:08:58;15.30;99.90
25112;DHT22;13092;51.996;4.458;2022-09-16T10:11:28;15.40;99.90
25112;DHT22;13092;51.996;4.458;2022-09-16T10:13:58;15.50;99.90
25112;DHT22;13092;51.996;4.458;2022-09-16T10:16:29;15.60;99.90
25112;DHT22;13092;51.996;4.458;2022-09-16T10:19:02;15.60;99.90
25112;DHT22;13092;51.996;4.458;2022-09-16T10:21:39;15.70;99.90
25112;DHT22;13092;51.996;4.458;2022-09-16T10:24:28;15.50;99.90
25112;DHT22;13092;51.996;4.458;2022-09-16T10:26:57;15.30;99.90
25112;DHT22;13092;51.996;4.458;2022-09-16T10:29:26;15.10;99.90
25112;DHT22;13092;51.996;4.458;2022-09-16T10:31:54;15.10;99.90
25112;DHT22;13092;51.996;4.458;2022-09-16T10:34:30;15.10;99.90
25112;DHT22;13092;51.996;4.458;2022-09-16T10:37:02;15.20;99.90
25112;DHT22;13092;51.996;4.458;2022-09-16T10:39:33;15.20;99.90
25112;DHT22;13092;51.996;4.458;2022-09-16T10:42:02;15.20;99.90
25112;DHT22;13092;51.996;4.458;2022-09-16T10:44:32;15.20;99.90
25112;DHT22;13092;51.996;4.458;2022-09-16T10:47:03;15.20;99.90
25112;DHT22;13092;51.996;4.458;2022-09-16T10:49:39;15.40;99.90
25112;DHT22;13092;51.996;4.458;2022-09-16T10:52:17;15.50;99.90
25112;DHT22;13092;51.996;4.458;2022-09-16T10:54:47;15.60;99.90
25112;DHT22;13092;51.996;4.458;2022-09-16T10:57:24;15.80;99.90
25112;DHT22;13092;51.996;4.458;2022-09-16T11:00:00;16.00;99.90
25112;DHT22;13092;51.996;4.458;2022-09-16T11:03:13;16.10;99.90
25112;DHT22;13092;51.996;4.458;2022-09-16T11:05:52;16.20;99.90
25112;DHT22;13092;51.996;4.458;2022-09-16T11:08:37;16.30;99.90
25112;DHT22;13092;51.996;4.458;2022-09-16T11:11:16;16.40;99.90
25112;DHT22;13092;51.996;4.458;2022-09-16T11:13:51;16.40;99.90
25112;DHT22;13092;51.996;4.458;2022-09-16T11:16:37;16.50;99.90
25112;DHT22;13092;51.996;4.458;2022-09-16T11:19:15;16.60;99.90
25112;DHT22;13092;51.996;4.458;2022-09-16T11:22:01;16.50;99.90
25112;DHT22;13092;51.996;4.458;2022-09-16T11:27:44;16.80;99.90
25112;DHT22;13092;51.996;4.458;2022-09-16T11:30:20;17.10;99.90
25112;DHT22;13092;51.996;4.458;2022-09-16T11:33:05;17.20;99.90
25112;DHT22;13092;51.996;4.458;2022-09-16T11:38:37;16.70;99.90
25112;DHT22;13092;51.996;4.458;2022-09-16T11:41:24;16.40;99.90
25112;DHT22;13092;51.996;4.458;2022-09-16T11:44:10;16.30;99.90
25112;DHT22;13092;51.996;4.458;2022-09-16T11:46:51;16.50;99.90
25112;DHT22;13092;51.996;4.458;2022-09-16T11:49:38;16.60;99.90
25112;DHT22;13092;51.996;4.458;2022-09-16T11:52:20;16.80;99.90
25112;DHT22;13092;51.996;4.458;2022-09-16T11:55:13;16.70;99.90
25112;DHT22;13092;51.996;4.458;2022-09-16T11:57:49;16.60;99.90
25112;DHT22;13092;51.996;4.458;2022-09-16T12:00:20;16.60;99.90
25112;DHT22;13092;51.996;4.458;2022-09-16T12:02:55;16.60;99.90
25112;DHT22;13092;51.996;4.458;2022-09-16T12:05:32;16.40;99.90
25112;DHT22;13092;51.996;4.458;2022-09-16T12:08:08;16.40;99.90
25112;DHT22;13092;51.996;4.458;2022-09-16T12:10:44;16.50;99.90
25112;DHT22;13092;51.996;4.458;2022-09-16T12:13:17;16.40;99.90
25112;DHT22;13092;51.996;4.458;2022-09-16T12:15:51;16.40;99.90
25112;DHT22;13092;51.996;4.458;2022-09-16T12:18:25;16.50;99.90
25112;DHT22;13092;51.996;4.458;2022-09-16T12:21:02;16.50;99.90
25112;DHT22;13092;51.996;4.458;2022-09-16T12:23:35;16.60;99.90
25112;DHT22;13092;51.996;4.458;2022-09-16T12:26:09;16.70;99.90
25112;DHT22;13092;51.996;4.458;2022-09-16T12:28:43;16.80;99.90
25112;DHT22;13092;51.996;4.458;2022-09-16T12:31:18;16.70;99.90
25112;DHT22;13092;51.996;4.458;2022-09-16T12:33:53;16.60;99.90
25112;DHT22;13092;51.996;4.458;2022-09-16T12:36:28;16.50;99.90
25112;DHT22;13092;51.996;4.458;2022-09-16T12:38:57;16.30;99.90
25112;DHT22;13092;51.996;4.458;2022-09-16T12:44:33;15.80;99.90
25112;DHT22;13092;51.996;4.458;2022-09-16T12:47:22;15.50;99.90
25112;DHT22;13092;51.996;4.458;2022-09-16T12:50:16;15.20;99.90
25112;DHT22;13092;51.996;4.458;2022-09-16T12:56:03;14.90;99.90
25112;DHT22;13092;51.996;4.458;2022-09-16T12:58:50;14.80;99.90
25112;DHT22;13092;51.996;4.458;2022-09-16T13:01:23;14.70;99.90
25112;DHT22;13092;51.996;4.458;2022-09-16T13:03:56;14.50;99.90
25112;DHT22;13092;51.996;4.458;2022-09-16T13:06:27;14.30;99.90
25112;DHT22;13092;51.996;4.458;2022-09-16T13:08:58;14.20;99.90
25112;DHT22;13092;51.996;4.458;2022-09-16T13:11:40;14.10;99.90
25112;DHT22;13092;51.996;4.458;2022-09-16T13:14:30;14.10;99.90
25112;DHT22;13092;51.996;4.458;2022-09-16T13:17:00;14.10;99.90
25112;DHT22;13092;51.996;4.458;2022-09-16T13:19:38;14.20;99.90
25112;DHT22;13092;51.996;4.458;2022-09-16T13:22:18;14.40;99.90
25112;DHT22;13092;51.996;4.458;2022-09-16T13:24:50;14.60;99.90
25112;DHT22;13092;51.996;4.458;2022-09-16T13:27:30;14.50;99.90
25112;DHT22;13092;51.996;4.458;2022-09-16T13:30:12;14.60;99.90
25112;DHT22;13092;51.996;4.458;2022-09-16T13:32:43;14.60;99.90
25112;DHT22;13092;51.996;4.458;2022-09-16T13:35:34;14.50;99.90
25112;DHT22;13092;51.996;4.458;2022-09-16T13:38:21;14.60;99.90
25112;DHT22;13092;51.996;4.458;2022-09-16T13:40:55;14.90;99.90
25112;DHT22;13092;51.996;4.458;2022-09-16T13:43:31;15.00;99.90
25112;DHT22;13092;51.996;4.458;2022-09-16T13:46:08;15.00;99.90
25112;DHT22;13092;51.996;4.458;2022-09-16T13:48:41;15.30;99.90
25112;DHT22;13092;51.996;4.458;2022-09-16T13:51:20;15.50;99.90
25112;DHT22;13092;51.996;4.458;2022-09-16T13:53:50;15.60;99.90
25112;DHT22;13092;51.996;4.458;2022-09-16T13:56:41;15.80;99.90
25112;DHT22;13092;51.996;4.458;2022-09-16T13:59:27;15.80;99.90
25112;DHT22;13092;51.996;4.458;2022-09-16T14:02:06;15.90;99.90
25112;DHT22;13092;51.996;4.458;2022-09-16T14:04:51;16.00;99.90
25112;DHT22;13092;51.996;4.458;2022-09-16T14:07:32;15.80;99.90
25112;DHT22;13092;51.996;4.458;2022-09-16T14:10:08;15.90;99.90
25112;DHT22;13092;51.996;4.458;2022-09-16T14:12:48;15.80;99.90
25112;DHT22;13092;51.996;4.458;2022-09-16T14:15:20;15.80;99.90
25112;DHT22;13092;51.996;4.458;2022-09-16T14:17:52;15.70;99.90
25112;DHT22;13092;51.996;4.458;2022-09-16T14:20:23;15.80;99.90
25112;DHT22;13092;51.996;4.458;2022-09-16T14:23:14;15.60;99.90
25112;DHT22;13092;51.996;4.458;2022-09-16T14:25:43;15.60;99.90
25112;DHT22;13092;51.996;4.458;2022-09-16T14:28:16;15.60;99.90
25112;DHT22;13092;51.996;4.458;2022-09-16T14:30:49;15.60;99.90
25112;DHT22;13092;51.996;4.458;2022-09-16T14:33:22;15.60;99.90
25112;DHT22;13092;51.996;4.458;2022-09-16T14:35:54;15.70;99.90
25112;DHT22;13092;51.996;4.458;2022-09-16T14:38:32;15.70;99.90
25112;DHT22;13092;51.996;4.458;2022-09-16T14:41:18;16.00;99.90
25112;DHT22;13092;51.996;4.458;2022-09-16T14:43:49;16.20;99.90
25112;DHT22;13092;51.996;4.458;2022-09-16T14:46:18;16.00;99.90
25112;DHT22;13092;51.996;4.458;2022-09-16T14:48:46;16.00;99.90
25112;DHT22;13092;51.996;4.458;2022-09-16T14:51:21;16.20;99.90
25112;DHT22;13092;51.996;4.458;2022-09-16T14:53:56;16.50;99.90
25112;DHT22;13092;51.996;4.458;2022-09-16T14:56:41;16.70;99.90
25112;DHT22;13092;51.996;4.458;2022-09-16T14:59:10;16.50;99.90
25112;DHT22;13092;51.996;4.458;2022-09-16T15:01:40;16.50;99.90
25112;DHT22;13092;51.996;4.458;2022-09-16T15:04:13;16.40;99.90
25112;DHT22;13092;51.996;4.458;2022-09-16T15:06:47;16.40;99.90
25112;DHT22;13092;51.996;4.458;2022-09-16T15:09:23;16.40;99.90
25112;DHT22;13092;51.996;4.458;2022-09-16T15:11:57;16.50;99.90
25112;DHT22;13092;51.996;4.458;2022-09-16T15:14:25;16.90;99.90
25112;DHT22;13092;51.996;4.458;2022-09-16T15:16:57;16.80;99.90
25112;DHT22;13092;51.996;4.458;2022-09-16T15:19:29;16.90;99.90
25112;DHT22;13092;51.996;4.458;2022-09-16T15:21:58;16.90;99.90
25112;DHT22;13092;51.996;4.458;2022-09-16T15:24:30;16.90;99.90
25112;DHT22;13092;51.996;4.458;2022-09-16T15:26:59;16.90;99.90
25112;DHT22;13092;51.996;4.458;2022-09-16T15:29:32;17.00;99.90
25112;DHT22;13092;51.996;4.458;2022-09-16T15:32:15;16.80;99.90
25112;DHT22;13092;51.996;4.458;2022-09-16T15:34:45;16.80;99.90
25112;DHT22;13092;51.996;4.458;2022-09-16T15:37:32;16.80;99.90
25112;DHT22;13092;51.996;4.458;2022-09-16T15:40:28;16.90;99.90
25112;DHT22;13092;51.996;4.458;2022-09-16T15:43:09;16.80;99.90
25112;DHT22;13092;51.996;4.458;2022-09-16T15:45:39;16.60;99.90
25112;DHT22;13092;51.996;4.458;2022-09-16T15:48:12;16.50;99.90
25112;DHT22;13092;51.996;4.458;2022-09-16T15:50:44;16.50;99.90
25112;DHT22;13092;51.996;4.458;2022-09-16T15:53:16;16.50;99.90
25112;DHT22;13092;51.996;4.458;2022-09-16T15:55:57;16.50;99.90
25112;DHT22;13092;51.996;4.458;2022-09-16T15:58:37;16.50;99.90
25112;DHT22;13092;51.996;4.458;2022-09-16T16:01:16;16.70;99.90
25112;DHT22;13092;51.996;4.458;2022-09-16T16:03:52;17.00;99.90
25112;DHT22;13092;51.996;4.458;2022-09-16T16:06:46;17.00;99.90
25112;DHT22;13092;51.996;4.458;2022-09-16T16:09:37;17.10;99.90
25112;DHT22;13092;51.996;4.458;2022-09-16T16:12:09;17.10;99.90
25112;DHT22;13092;51.996;4.458;2022-09-16T16:14:39;17.00;99.90
25112;DHT22;13092;51.996;4.458;2022-09-16T16:17:10;16.80;99.90
25112;DHT22;13092;51.996;4.458;2022-09-16T16:19:40;16.70;99.90
25112;DHT22;13092;51.996;4.458;2022-09-16T16:22:09;16.60;99.90
25112;DHT22;13092;51.996;4.458;2022-09-16T16:24:38;16.70;99.90
25112;DHT22;13092;51.996;4.458;2022-09-16T16:27:10;16.70;99.90
25112;DHT22;13092;51.996;4.458;2022-09-16T16:29:38;16.80;99.90